Observation data for Haskell on 01/17/2021      Previous  Date  Next       Current Mesonet Observations  Soil Data  Daily Summary Page  Observations in Plain Language
KHA1 170600Z 27006KT 03/M03 A3006 RMK A01 T00281032  RH  065%=      5-min Rain = 0
KHA1 170605Z 26006KT 03/M03 A3006 RMK A01 T00271031  RH  066%=      5-min Rain = 0
KHA1 170610Z 27006KT 03/M03 A3006 RMK A01 T00291032  RH  065%=      5-min Rain = 0
KHA1 170615Z 25005KT 03/M03 A3006 RMK A01 T00261032  RH  066%=      5-min Rain = 0
KHA1 170620Z 23005KT 02/M03 A3007 RMK A01 T00211031  RH  069%=      5-min Rain = 0
KHA1 170625Z 22004KT 02/M03 A3007 RMK A01 T00161031  RH  072%=      5-min Rain = 0
KHA1 170630Z 21005KT 01/M03 A3007 RMK A01 T00101033  RH  073%=      5-min Rain = 0
KHA1 170635Z 22005KT 01/M03 A3007 RMK A01 T00061033  RH  075%=      5-min Rain = 0
KHA1 170640Z 23005KT 01/M03 A3007 RMK A01 T00061034  RH  075%=      5-min Rain = 0
KHA1 170645Z 23004KT 00/M03 A3007 RMK A01 T00041033  RH  077%=      5-min Rain = 0
KHA1 170650Z 23004KT 01/M03 A3007 RMK A01 T00071031  RH  076%=      5-min Rain = 0
KHA1 170655Z 24004KT 01/M03 A3007 RMK A01 T00091033  RH  074%=      5-min Rain = 0
KHA1 170700Z 24004KT 01/M03 A3007 RMK A01 T00101033  RH  074%=      5-min Rain = 0
KHA1 170705Z 24004KT 01/M03 A3007 RMK A01 T00121033  RH  072%=      5-min Rain = 0
KHA1 170710Z 24004KT 01/M03 A3007 RMK A01 T00091034  RH  073%=      5-min Rain = 0
KHA1 170715Z 25004KT 01/M04 A3008 RMK A01 T00061035  RH  074%=      5-min Rain = 0
KHA1 170720Z 25004KT 00/M04 A3008 RMK A01 T00011035  RH  077%=      5-min Rain = 0
KHA1 170725Z 26005KT 00/M03 A3008 RMK A01 T00031034  RH  077%=      5-min Rain = 0
KHA1 170730Z 26005KT 00/M04 A3008 RMK A01 T00041035  RH  076%=      5-min Rain = 0
KHA1 170735Z 25005KT 00/M03 A3008 RMK A01 T00011034  RH  077%=      5-min Rain = 0
KHA1 170740Z 25006KT 00/M03 A3008 RMK A01 T00021034  RH  077%=      5-min Rain = 0
KHA1 170745Z 25005KT 00/04 A3008 RMK A01 T00-00-35  RH  078%=      5-min Rain = 0
KHA1 170750Z 24004KT 00/M03 A3008 RMK A01 T00011033  RH  078%=      5-min Rain = 0
KHA1 170755Z 26005KT 01/M03 A3008 RMK A01 T00051032  RH  076%=      5-min Rain = 0
KHA1 170800Z 27006KT 01/M03 A3008 RMK A01 T00121033  RH  073%=      5-min Rain = 0
KHA1 170805Z 29004KT 01/M03 A3009 RMK A01 T00091034  RH  074%=      5-min Rain = 0
KHA1 170810Z 29005KT 01/M04 A3009 RMK A01 T00081035  RH  073%=      5-min Rain = 0
KHA1 170815Z 29005KT 01/M04 A3009 RMK A01 T00111036  RH  071%=      5-min Rain = 0
KHA1 170820Z 29006KT 01/M04 A3009 RMK A01 T00111036  RH  071%=      5-min Rain = 0
KHA1 170825Z 29005KT 01/M04 A3009 RMK A01 T00081037  RH  072%=      5-min Rain = 0
KHA1 170830Z 28005KT 01/M04 A3009 RMK A01 T00061037  RH  073%=      5-min Rain = 0
KHA1 170835Z 26005KT 01/M04 A3009 RMK A01 T00051036  RH  075%=      5-min Rain = 0
KHA1 170840Z 24005KT 01/M04 A3009 RMK A01 T00071035  RH  074%=      5-min Rain = 0
KHA1 170845Z 25005KT 01/M04 A3009 RMK A01 T00091035  RH  073%=      5-min Rain = 0
KHA1 170850Z 26006KT 01/M04 A3008 RMK A01 T00141035  RH  070%=      5-min Rain = 0
KHA1 170855Z 24004KT 01/M04 A3008 RMK A01 T00071037  RH  073%=      5-min Rain = 0
KHA1 170900Z 24004KT 00/M04 A3008 RMK A01 T00021037  RH  076%=      5-min Rain = 0
KHA1 170905Z 23005KT 01/M04 A3008 RMK A01 T00051038  RH  074%=      5-min Rain = 0
KHA1 170910Z 22004KT 00/04 A3008 RMK A01 T00000-39  RH  075%=      5-min Rain = 0
KHA1 170915Z 24005KT M00/M04 A3008 RMK A01 T10021038  RH  077%=      5-min Rain = 0
KHA1 170920Z 24005KT M00/M04 A3008 RMK A01 T10041039  RH  077%=      5-min Rain = 0
KHA1 170925Z 24003KT M01/M04 A3008 RMK A01 T10071039  RH  080%=      5-min Rain = 0
KHA1 170930Z 26004KT M01/M04 A3009 RMK A01 T10071037  RH  081%=      5-min Rain = 0
KHA1 170935Z 27005KT M01/M04 A3009 RMK A01 T10051039  RH  078%=      5-min Rain = 0
KHA1 170940Z 26005KT M01/M04 A3009 RMK A01 T10051039  RH  078%=      5-min Rain = 0
KHA1 170945Z 27005KT M01/M04 A3009 RMK A01 T10051040  RH  078%=      5-min Rain = 0
KHA1 170950Z 30005KT M01/M04 A301 RMK A01 T10121044  RH  079%=      5-min Rain = 0
KHA1 170955Z 29006KT M01/M04 A3009 RMK A01 T10091039  RH  081%=      5-min Rain = 0
KHA1 171000Z 31006KT M01/M04 A3009 RMK A01 T10101041  RH  080%=      5-min Rain = 0
KHA1 171005Z 31007KT M01/M04 A3009 RMK A01 T10121040  RH  082%=      5-min Rain = 0
KHA1 171010Z 31008KT M01/M04 A3009 RMK A01 T10081036  RH  082%=      5-min Rain = 0
KHA1 171015Z 31008KT M01/M04 A301 RMK A01 T10061035  RH  081%=      5-min Rain = 0
KHA1 171020Z 32009KT M00/M03 A301 RMK A01 T10041034  RH  080%=      5-min Rain = 0
KHA1 171025Z 32008KT M00/M03 A301 RMK A01 T10011034  RH  079%=      5-min Rain = 0
KHA1 171030Z 33009KT 00/M04 A301 RMK A01 T00031035  RH  076%=      5-min Rain = 0
KHA1 171035Z 33009KT 00/M04 A301 RMK A01 T00031037  RH  075%=      5-min Rain = 0
KHA1 171040Z 33009KT 00/M04 A301 RMK A01 T00031037  RH  075%=      5-min Rain = 0
KHA1 171045Z 33009KT 00/M04 A301 RMK A01 T00041038  RH  074%=      5-min Rain = 0
KHA1 171050Z 34008KT 00/M04 A301 RMK A01 T00041038  RH  074%=      5-min Rain = 0
KHA1 171055Z 34008KT 00/M04 A301 RMK A01 T00041038  RH  074%=      5-min Rain = 0
KHA1 171100Z 34008KT 00/M04 A3011 RMK A01 T00031039  RH  074%=      5-min Rain = 0
KHA1 171105Z 34008KT 00/M04 A3011 RMK A01 T00021039  RH  074%=      5-min Rain = 0
KHA1 171110Z 34008KT 00/M04 A3011 RMK A01 T00031038  RH  074%=      5-min Rain = 0
KHA1 171115Z 34008KT 00/M04 A3011 RMK A01 T00031038  RH  074%=      5-min Rain = 0
KHA1 171120Z 34007KT 00/M04 A3011 RMK A01 T00021039  RH  075%=      5-min Rain = 0
KHA1 171125Z 34007KT M00/M04 A3011 RMK A01 T10011039  RH  076%=      5-min Rain = 0
KHA1 171130Z 34007KT M00/M04 A3011 RMK A01 T10021039  RH  077%=      5-min Rain = 0
KHA1 171135Z 34006KT M00/M04 A3011 RMK A01 T10041039  RH  078%=      5-min Rain = 0
KHA1 171140Z 34006KT M01/M04 A3011 RMK A01 T10061039  RH  079%=      5-min Rain = 0
KHA1 171145Z 35007KT M01/M04 A3011 RMK A01 T10081039  RH  080%=      5-min Rain = 0
KHA1 171150Z 35006KT M01/M04 A3012 RMK A01 T10071037  RH  080%=      5-min Rain = 0
KHA1 171155Z 34006KT M00/M04 A3012 RMK A01 T10041036  RH  080%=      5-min Rain = 0
KHA1 171200Z 34006KT 00/03 A3012 RMK A01 T00000-34  RH  078%=      5-min Rain = 0
KHA1 171205Z 34006KT 00/M03 A3012 RMK A01 T00041034  RH  076%=      5-min Rain = 0
KHA1 171210Z 35005KT 01/M03 A3012 RMK A01 T00061034  RH  075%=      5-min Rain = 0
KHA1 171215Z 35006KT 01/M03 A3012 RMK A01 T00061034  RH  075%=      5-min Rain = 0
KHA1 171220Z 34007KT 01/M03 A3012 RMK A01 T00061034  RH  075%=      5-min Rain = 0
KHA1 171225Z 35007KT 01/M03 A3012 RMK A01 T00061034  RH  075%=      5-min Rain = 0
KHA1 171230Z 34007KT 01/M03 A3012 RMK A01 T00071033  RH  075%=      5-min Rain = 0
KHA1 171235Z 34007KT 01/M03 A3012 RMK A01 T00061033  RH  076%=      5-min Rain = 0
KHA1 171240Z 34007KT 01/M03 A3013 RMK A01 T00061033  RH  075%=      5-min Rain = 0
KHA1 171245Z 34007KT 01/M03 A3013 RMK A01 T00061033  RH  076%=      5-min Rain = 0
KHA1 171250Z 34006KT 00/M03 A3014 RMK A01 T00041034  RH  076%=      5-min Rain = 0
KHA1 171255Z 34006KT 00/M03 A3014 RMK A01 T00041034  RH  076%=      5-min Rain = 0
KHA1 171300Z 34007KT 00/M03 A3014 RMK A01 T00041034  RH  076%=      5-min Rain = 0
KHA1 171305Z 34007KT 00/M04 A3014 RMK A01 T00041035  RH  076%=      5-min Rain = 0
KHA1 171310Z 33007KT 00/M03 A3014 RMK A01 T00041034  RH  076%=      5-min Rain = 0
KHA1 171315Z 33007KT 01/M03 A3015 RMK A01 T00051034  RH  076%=      5-min Rain = 0
KHA1 171320Z 33006KT 00/M04 A3015 RMK A01 T00031035  RH  076%=      5-min Rain = 0
KHA1 171325Z 33006KT 00/M04 A3015 RMK A01 T00011036  RH  076%=      5-min Rain = 0
KHA1 171330Z 33006KT 00/04 A3015 RMK A01 T00-00-37  RH  077%=      5-min Rain = 0
KHA1 171335Z 33006KT 00/04 A3015 RMK A01 T00-00-37  RH  077%=      5-min Rain = 0
KHA1 171340Z 33006KT M00/M04 A3015 RMK A01 T10011037  RH  077%=      5-min Rain = 0
KHA1 171345Z 33006KT M00/M04 A3016 RMK A01 T10031037  RH  078%=      5-min Rain = 0
KHA1 171350Z 33006KT M00/M04 A3016 RMK A01 T10031037  RH  078%=      5-min Rain = 0
KHA1 171355Z 33007KT M00/M04 A3016 RMK A01 T10021036  RH  079%=      5-min Rain = 0
KHA1 171400Z 33007KT 00/M03 A3016 RMK A01 T00011034  RH  078%=      5-min Rain = 0
KHA1 171405Z 33006KT 00/M03 A3016 RMK A01 T00031033  RH  077%=      5-min Rain = 0
KHA1 171410Z 33006KT 00/M03 A3016 RMK A01 T00041033  RH  077%=      5-min Rain = 0
KHA1 171415Z 33007KT 01/M03 A3016 RMK A01 T00061031  RH  076%=      5-min Rain = 0
KHA1 171420Z 33007KT 01/M03 A3016 RMK A01 T00091029  RH  076%=      5-min Rain = 0
KHA1 171425Z 33007KT 01/M03 A3016 RMK A01 T00121028  RH  075%=      5-min Rain = 0
KHA1 171430Z 33006KT 02/M03 A3016 RMK A01 T00151026  RH  074%=      5-min Rain = 0
KHA1 171435Z 33006KT 02/M03 A3017 RMK A01 T00181025  RH  074%=      5-min Rain = 0
KHA1 171440Z 33005KT 02/M02 A3017 RMK A01 T00211023  RH  073%=      5-min Rain = 0
KHA1 171445Z 34006KT 03/M02 A3017 RMK A01 T00261022  RH  071%=      5-min Rain = 0
KHA1 171450Z 34006KT 03/M02 A3017 RMK A01 T00291022  RH  070%=      5-min Rain = 0
KHA1 171455Z 34006KT 03/M02 A3018 RMK A01 T00311020  RH  070%=      5-min Rain = 0
KHA1 171500Z 34007KT 03/M02 A3018 RMK A01 T00331021  RH  069%=      5-min Rain = 0
KHA1 171505Z 34007KT 04/M02 A3018 RMK A01 T00351019  RH  068%=      5-min Rain = 0
KHA1 171510Z 34006KT 04/M02 A3018 RMK A01 T00371017  RH  068%=      5-min Rain = 0
KHA1 171515Z 33006KT 04/M02 A3018 RMK A01 T00381017  RH  068%=      5-min Rain = 0
KHA1 171520Z 34006KT 04/M02 A3018 RMK A01 T00401015  RH  068%=      5-min Rain = 0
KHA1 171525Z 34006KT 04/M01 A3018 RMK A01 T00431014  RH  067%=      5-min Rain = 0
KHA1 171530Z 34006KT 05/M02 A3018 RMK A01 T00461015  RH  065%=      5-min Rain = 0
KHA1 171535Z 34007KT 05/M02 A3019 RMK A01 T00481015  RH  064%=      5-min Rain = 0
KHA1 171540Z 34007KT 05/M02 A3019 RMK A01 T00501015  RH  063%=      5-min Rain = 0
KHA1 171545Z 34007KT 05/M01 A3019 RMK A01 T00511014  RH  064%=      5-min Rain = 0
KHA1 171550Z 34007KT 05/M01 A302 RMK A01 T00521013  RH  063%=      5-min Rain = 0
KHA1 171555Z 34006KT 05/M01 A302 RMK A01 T00541011  RH  063%=      5-min Rain = 0
KHA1 171600Z 34006KT 06/M01 A3021 RMK A01 T00551011  RH  063%=      5-min Rain = 0
KHA1 171605Z 34007KT 06/M01 A3021 RMK A01 T00561011  RH  062%=      5-min Rain = 0
KHA1 171610Z 35008KT 06/M01 A3021 RMK A01 T00571013  RH  061%=      5-min Rain = 0
KHA1 171615Z 35008KT 06/M01 A3021 RMK A01 T00591014  RH  060%=      5-min Rain = 0
KHA1 171620Z 34008KT 06/M02 A3021 RMK A01 T00601016  RH  059%=      5-min Rain = 0
KHA1 171625Z 34008KT 06/M02 A3021 RMK A01 T00621015  RH  058%=      5-min Rain = 0
KHA1 171630Z 34007KT 06/M01 A3021 RMK A01 T00641014  RH  058%=      5-min Rain = 0
KHA1 171635Z 34008KT 07/M02 A3021 RMK A01 T00651015  RH  057%=      5-min Rain = 0
KHA1 171640Z 34007KT 07/M02 A3021 RMK A01 T00671015  RH  056%=      5-min Rain = 0
KHA1 171645Z 35006KT 07/M01 A3021 RMK A01 T00701012  RH  056%=      5-min Rain = 0
KHA1 171650Z 35005KT 07/M01 A3021 RMK A01 T00731014  RH  055%=      5-min Rain = 0
KHA1 171655Z 35006KT 07/M01 A3021 RMK A01 T00731013  RH  055%=      5-min Rain = 0
KHA1 171700Z 36007KT 08/M01 A3021 RMK A01 T00771014  RH  053%=      5-min Rain = 0
KHA1 171705Z 35005KT 08/M01 A3021 RMK A01 T00781013  RH  053%=      5-min Rain = 0
KHA1 171710Z 35006KT 08/M02 A302 RMK A01 T00811015  RH  051%=      5-min Rain = 0
KHA1 171715Z 00005KT 08/M02 A302 RMK A01 T00821017  RH  050%=      5-min Rain = 0
KHA1 171720Z 36006KT 09/M02 A302 RMK A01 T00851018  RH  049%=      5-min Rain = 0
KHA1 171725Z 36006KT 08/M02 A302 RMK A01 T00841020  RH  048%=      5-min Rain = 0
KHA1 171730Z 36006KT 09/M02 A302 RMK A01 T00851021  RH  048%=      5-min Rain = 0
KHA1 171735Z 01006KT 09/M02 A302 RMK A01 T00861024  RH  046%=      5-min Rain = 0
KHA1 171740Z 00006KT 09/M02 A302 RMK A01 T00881021  RH  047%=      5-min Rain = 0
KHA1 171745Z 36006KT 09/M02 A302 RMK A01 T00891021  RH  046%=      5-min Rain = 0
KHA1 171750Z 01005KT 09/M03 A3019 RMK A01 T00921027  RH  043%=      5-min Rain = 0
KHA1 171755Z 02005KT 09/M03 A3019 RMK A01 T00921028  RH  043%=      5-min Rain = 0
KHA1 171800Z 02005KT 09/M02 A3019 RMK A01 T00941023  RH  044%=      5-min Rain = 0
KHA1 171805Z 02005KT 10/M02 A3018 RMK A01 T00961024  RH  043%=      5-min Rain = 0
KHA1 171810Z 03005KT 10/M02 A3018 RMK A01 T00981022  RH  043%=      5-min Rain = 0
KHA1 171815Z 03004KT 10/M03 A3017 RMK A01 T00991025  RH  042%=      5-min Rain = 0
KHA1 171820Z 02005KT 10/M03 A3017 RMK A01 T01001029  RH  040%=      5-min Rain = 0
KHA1 171825Z 02005KT 10/M03 A3017 RMK A01 T01001028  RH  041%=      5-min Rain = 0
KHA1 171830Z 02005KT 10/M02 A3017 RMK A01 T01021024  RH  042%=      5-min Rain = 0
KHA1 171835Z 03004KT 10/M02 A3016 RMK A01 T01041024  RH  041%=      5-min Rain = 0
KHA1 171840Z 03004KT 10/M03 A3016 RMK A01 T01031028  RH  040%=      5-min Rain = 0
KHA1 171845Z 01006KT 10/M03 A3016 RMK A01 T01021029  RH  040%=      5-min Rain = 0
KHA1 171850Z 03005KT 10/M03 A3015 RMK A01 T01031028  RH  040%=      5-min Rain = 0
KHA1 171855Z 01005KT 10/M03 A3015 RMK A01 T01041028  RH  040%=      5-min Rain = 0
KHA1 171900Z 01006KT 10/M03 A3015 RMK A01 T01041031  RH  039%=      5-min Rain = 0
KHA1 171905Z 01005KT 11/M03 A3015 RMK A01 T01081025  RH  040%=      5-min Rain = 0
KHA1 171910Z 35005KT 11/M03 A3014 RMK A01 T01081027  RH  039%=      5-min Rain = 0
KHA1 171915Z 03004KT 11/M03 A3014 RMK A01 T01081027  RH  039%=      5-min Rain = 0
KHA1 171920Z 01005KT 11/M03 A3014 RMK A01 T01061030  RH  039%=      5-min Rain = 0
KHA1 171925Z 01005KT 11/M03 A3014 RMK A01 T01071032  RH  038%=      5-min Rain = 0
KHA1 171930Z 03005KT 11/M03 A3014 RMK A01 T01091030  RH  038%=      5-min Rain = 0
KHA1 171935Z 35005KT 11/M03 A3014 RMK A01 T01111030  RH  037%=      5-min Rain = 0
KHA1 171940Z 35004KT 11/M03 A3013 RMK A01 T01131031  RH  037%=      5-min Rain = 0
KHA1 171945Z 01003KT 11/M03 A3013 RMK A01 T01141030  RH  037%=      5-min Rain = 0
KHA1 171950Z 04004KT 11/M03 A3013 RMK A01 T01141033  RH  036%=      5-min Rain = 0
KHA1 171955Z 35004KT 12/M03 A3012 RMK A01 T01161034  RH  035%=      5-min Rain = 0
KHA1 172000Z 00004KT 12/M04 A3012 RMK A01 T01161035  RH  035%=      5-min Rain = 0
KHA1 172005Z 00003KT 12/M04 A3012 RMK A01 T01201035  RH  034%=      5-min Rain = 0
KHA1 172010Z 34004KT 12/M04 A3012 RMK A01 T01201036  RH  033%=      5-min Rain = 0
KHA1 172015Z 00006KT 12/M04 A3012 RMK A01 T01191036  RH  034%=      5-min Rain = 0
KHA1 172020Z 36003KT 12/M03 A3012 RMK A01 T01201033  RH  034%=      5-min Rain = 0
KHA1 172025Z 33004KT 12/M04 A3012 RMK A01 T01201036  RH  034%=      5-min Rain = 0
KHA1 172030Z 34004KT 12/M04 A3012 RMK A01 T01191035  RH  034%=      5-min Rain = 0
KHA1 172035Z 34001KT 12/M04 A3012 RMK A01 T01221035  RH  034%=      5-min Rain = 0
KHA1 172040Z 02003KT 13/M03 A3012 RMK A01 T01251033  RH  033%=      5-min Rain = 0
KHA1 172045Z 02004KT 12/M04 A3011 RMK A01 T01221038  RH  033%=      5-min Rain = 0
KHA1 172050Z 01003KT 12/M04 A3011 RMK A01 T01231039  RH  032%=      5-min Rain = 0
KHA1 172055Z 36004KT 12/M04 A3011 RMK A01 T01241038  RH  032%=      5-min Rain = 0
KHA1 172100Z 00005KT 12/M04 A3011 RMK A01 T01241037  RH  033%=      5-min Rain = 0
KHA1 172105Z 02002KT 12/M04 A3011 RMK A01 T01241040  RH  032%=      5-min Rain = 0
KHA1 172110Z 01004KT 12/M04 A3011 RMK A01 T01231041  RH  032%=      5-min Rain = 0
KHA1 172115Z 33001KT 12/M04 A3011 RMK A01 T01241039  RH  032%=      5-min Rain = 0
KHA1 172120Z 04001KT 13/M04 A3011 RMK A01 T01251040  RH  032%=      5-min Rain = 0
KHA1 172125Z 01003KT 13/M04 A3011 RMK A01 T01261041  RH  031%=      5-min Rain = 0
KHA1 172130Z 04005KT 13/M04 A3011 RMK A01 T01251039  RH  032%=      5-min Rain = 0
KHA1 172135Z 04004KT 12/M04 A3011 RMK A01 T01231039  RH  032%=      5-min Rain = 0
KHA1 172140Z 04003KT 12/M04 A3011 RMK A01 T01241041  RH  032%=      5-min Rain = 0
KHA1 172145Z 01004KT 12/M04 A3011 RMK A01 T01241042  RH  031%=      5-min Rain = 0
KHA1 172150Z 01002KT 12/M04 A301 RMK A01 T01231044  RH  031%=      5-min Rain = 0
KHA1 172155Z 31001KT 13/M04 A301 RMK A01 T01271043  RH  030%=      5-min Rain = 0
KHA1 172200Z 01002KT 13/M04 A301 RMK A01 T01261042  RH  031%=      5-min Rain = 0
KHA1 172205Z 01003KT 13/M04 A301 RMK A01 T01261043  RH  031%=      5-min Rain = 0
KHA1 172210Z 02004KT 13/M04 A301 RMK A01 T01261039  RH  032%=      5-min Rain = 0
KHA1 172215Z 34003KT 13/M04 A301 RMK A01 T01251043  RH  031%=      5-min Rain = 0
KHA1 172220Z 32001KT 13/M04 A301 RMK A01 T01301042  RH  030%=      5-min Rain = 0
KHA1 172225Z 31002KT 13/M04 A301 RMK A01 T01291043  RH  030%=      5-min Rain = 0
KHA1 172230Z 29002KT 13/M04 A301 RMK A01 T01301044  RH  030%=      5-min Rain = 0
KHA1 172235Z 29002KT 13/M04 A301 RMK A01 T01291043  RH  030%=      5-min Rain = 0
KHA1 172240Z 30000KT 13/M04 A301 RMK A01 T01301042  RH  030%=      5-min Rain = 0
KHA1 172245Z 32001KT 13/M04 A301 RMK A01 T01311043  RH  030%=      5-min Rain = 0
KHA1 172250Z 32002KT 13/M04 A301 RMK A01 T01271044  RH  030%=      5-min Rain = 0
KHA1 172255Z 31002KT 13/M04 A301 RMK A01 T01261044  RH  030%=      5-min Rain = 0
KHA1 172300Z 32002KT 12/M04 A3009 RMK A01 T01241042  RH  031%=      5-min Rain = 0
KHA1 172305Z 30001KT 13/M04 A301 RMK A01 T01251042  RH  031%=      5-min Rain = 0
KHA1 172310Z 28002KT 13/M04 A301 RMK A01 T01251042  RH  031%=      5-min Rain = 0
KHA1 172315Z 33001KT 12/M04 A301 RMK A01 T01231040  RH  032%=      5-min Rain = 0
KHA1 172320Z 34001KT 12/M04 A3009 RMK A01 T01191044  RH  032%=      5-min Rain = 0
KHA1 172325Z 00001KT 12/M04 A3009 RMK A01 T01181043  RH  032%=      5-min Rain = 0
KHA1 172330Z 00000KT 12/M03 A3009 RMK A01 T01171034  RH  035%=      5-min Rain = 0
KHA1 172335Z 00000KT 12/M04 A3009 RMK A01 T01151041  RH  033%=      5-min Rain = 0
KHA1 172340Z 19000KT 11/M04 A3009 RMK A01 T01131044  RH  033%=      5-min Rain = 0
KHA1 172345Z 19000KT 11/M04 A301 RMK A01 T01131042  RH  034%=      5-min Rain = 0
KHA1 172350Z 19000KT 11/M04 A301 RMK A01 T01121044  RH  034%=      5-min Rain = 0
KHA1 172355Z 19000KT 11/M04 A301 RMK A01 T01081043  RH  035%=      5-min Rain = 0
KHA1 180000Z 19000KT 10/M04 A301 RMK A01 T01011041  RH  037%=      5-min Rain = 0
KHA1 180005Z 00000KT 10/M04 A3009 RMK A01 T00981041  RH  037%=      5-min Rain = 0
KHA1 180010Z 19000KT 10/M04 A3009 RMK A01 T00961040  RH  038%=      5-min Rain = 0
KHA1 180015Z 19001KT 10/M04 A3009 RMK A01 T00961039  RH  038%=      5-min Rain = 0
KHA1 180020Z 19001KT 09/M04 A3009 RMK A01 T00931039  RH  039%=      5-min Rain = 0
KHA1 180025Z 18002KT 08/M03 A3008 RMK A01 T00841025  RH  046%=      5-min Rain = 0
KHA1 180030Z 14003KT 08/M04 A3009 RMK A01 T00781035  RH  045%=      5-min Rain = 0
KHA1 180035Z 15004KT 08/M04 A3009 RMK A01 T00791037  RH  044%=      5-min Rain = 0
KHA1 180040Z 15004KT 08/M04 A3008 RMK A01 T00801037  RH  044%=      5-min Rain = 0
KHA1 180045Z 16003KT 08/M04 A3009 RMK A01 T00821040  RH  042%=      5-min Rain = 0
KHA1 180050Z 17003KT 08/M04 A3009 RMK A01 T00831040  RH  042%=      5-min Rain = 0
KHA1 180055Z 17003KT 07/M03 A3009 RMK A01 T00691027  RH  051%=      5-min Rain = 0
KHA1 180100Z 16003KT 07/M03 A3009 RMK A01 T00651029  RH  051%=      5-min Rain = 0
KHA1 180105Z 17003KT 06/M03 A301 RMK A01 T00621030  RH  052%=      5-min Rain = 0
KHA1 180110Z 18003KT 06/M03 A301 RMK A01 T00611034  RH  051%=      5-min Rain = 0
KHA1 180115Z 18003KT 06/M04 A301 RMK A01 T00631035  RH  050%=      5-min Rain = 0
KHA1 180120Z 19003KT 06/M04 A301 RMK A01 T00621037  RH  049%=      5-min Rain = 0
KHA1 180125Z 19004KT 06/M04 A301 RMK A01 T00641037  RH  049%=      5-min Rain = 0
KHA1 180130Z 19005KT 07/M04 A301 RMK A01 T00731041  RH  044%=      5-min Rain = 0
KHA1 180135Z 18005KT 08/M04 A301 RMK A01 T00751041  RH  044%=      5-min Rain = 0
KHA1 180140Z 19004KT 07/M04 A301 RMK A01 T00721041  RH  045%=      5-min Rain = 0
KHA1 180145Z 18004KT 07/M04 A301 RMK A01 T00691041  RH  046%=      5-min Rain = 0
KHA1 180150Z 18005KT 07/M04 A3009 RMK A01 T00721041  RH  045%=      5-min Rain = 0
KHA1 180155Z 18005KT 07/M04 A3009 RMK A01 T00731041  RH  044%=      5-min Rain = 0
KHA1 180200Z 18005KT 07/M04 A3009 RMK A01 T00681039  RH  047%=      5-min Rain = 0
KHA1 180205Z 18005KT 07/M04 A3009 RMK A01 T00651040  RH  047%=      5-min Rain = 0
KHA1 180210Z 19005KT 07/M04 A3009 RMK A01 T00651040  RH  047%=      5-min Rain = 0
KHA1 180215Z 20004KT 06/M04 A3009 RMK A01 T00551040  RH  050%=      5-min Rain = 0
KHA1 180220Z 20004KT 06/M04 A3009 RMK A01 T00591040  RH  049%=      5-min Rain = 0
KHA1 180225Z 19005KT 06/M04 A3009 RMK A01 T00621041  RH  048%=      5-min Rain = 0
KHA1 180230Z 19004KT 06/M04 A3009 RMK A01 T00601039  RH  049%=      5-min Rain = 0
KHA1 180235Z 18005KT 06/M04 A3009 RMK A01 T00581039  RH  050%=      5-min Rain = 0
KHA1 180240Z 18005KT 06/M04 A3009 RMK A01 T00581039  RH  050%=      5-min Rain = 0
KHA1 180245Z 19005KT 06/M04 A3009 RMK A01 T00581039  RH  050%=      5-min Rain = 0
KHA1 180250Z 19005KT 06/M04 A3009 RMK A01 T00581040  RH  050%=      5-min Rain = 0
KHA1 180255Z 19004KT 06/M04 A3008 RMK A01 T00571040  RH  050%=      5-min Rain = 0
KHA1 180300Z 18005KT 06/M04 A3008 RMK A01 T00561041  RH  050%=      5-min Rain = 0
KHA1 180305Z 18004KT 06/M04 A3008 RMK A01 T00601041  RH  048%=      5-min Rain = 0
KHA1 180310Z 18004KT 06/M04 A3008 RMK A01 T00641042  RH  047%=      5-min Rain = 0
KHA1 180315Z 19003KT 07/M04 A3008 RMK A01 T00661043  RH  046%=      5-min Rain = 0
KHA1 180320Z 19003KT 06/M04 A3008 RMK A01 T00631043  RH  047%=      5-min Rain = 0
KHA1 180325Z 19003KT 05/M04 A3008 RMK A01 T00511042  RH  051%=      5-min Rain = 0
KHA1 180330Z 19003KT 04/M04 A3008 RMK A01 T00431042  RH  054%=      5-min Rain = 0
KHA1 180335Z 18004KT 04/M04 A3008 RMK A01 T00391041  RH  056%=      5-min Rain = 0
KHA1 180340Z 18004KT 03/M04 A3008 RMK A01 T00331039  RH  059%=      5-min Rain = 0
KHA1 180345Z 19004KT 03/M04 A3008 RMK A01 T00321039  RH  060%=      5-min Rain = 0
KHA1 180350Z 20005KT 03/M04 A3007 RMK A01 T00331037  RH  060%=      5-min Rain = 0
KHA1 180355Z 20005KT 04/M04 A3007 RMK A01 T00351039  RH  059%=      5-min Rain = 0
KHA1 180400Z 20004KT 04/M04 A3007 RMK A01 T00441040  RH  055%=      5-min Rain = 0
KHA1 180405Z 19005KT 05/M04 A3007 RMK A01 T00511042  RH  052%=      5-min Rain = 0
KHA1 180410Z 18005KT 06/M04 A3007 RMK A01 T00551041  RH  050%=      5-min Rain = 0
KHA1 180415Z 19005KT 06/M04 A3006 RMK A01 T00571042  RH  049%=      5-min Rain = 0
KHA1 180420Z 19005KT 05/M04 A3006 RMK A01 T00521040  RH  052%=      5-min Rain = 0
KHA1 180425Z 19005KT 05/M04 A3006 RMK A01 T00471040  RH  054%=      5-min Rain = 0
KHA1 180430Z 19005KT 05/M04 A3006 RMK A01 T00471040  RH  053%=      5-min Rain = 0
KHA1 180435Z 19005KT 05/M04 A3006 RMK A01 T00461039  RH  054%=      5-min Rain = 0
KHA1 180440Z 20004KT 04/M04 A3006 RMK A01 T00441040  RH  055%=      5-min Rain = 0
KHA1 180445Z 20004KT 04/M04 A3006 RMK A01 T00441040  RH  055%=      5-min Rain = 0
KHA1 180450Z 19004KT 04/M04 A3005 RMK A01 T00441042  RH  054%=      5-min Rain = 0
KHA1 180455Z 19004KT 05/M04 A3005 RMK A01 T00451042  RH  054%=      5-min Rain = 0
KHA1 180500Z 19005KT 04/M04 A3005 RMK A01 T00441041  RH  054%=      5-min Rain = 0
KHA1 180505Z 18005KT 04/M04 A3005 RMK A01 T00431041  RH  054%=      5-min Rain = 0
KHA1 180510Z 18005KT 04/M04 A3004 RMK A01 T00441042  RH  054%=      5-min Rain = 0
KHA1 180515Z 17005KT 04/M04 A3004 RMK A01 T00431041  RH  054%=      5-min Rain = 0
KHA1 180520Z 17006KT 04/M04 A3004 RMK A01 T00411040  RH  056%=      5-min Rain = 0
KHA1 180525Z 17006KT 04/M04 A3004 RMK A01 T00401039  RH  057%=      5-min Rain = 0
KHA1 180530Z 17006KT 04/M04 A3004 RMK A01 T00381039  RH  057%=      5-min Rain = 0
KHA1 180535Z 17006KT 04/M04 A3003 RMK A01 T00371039  RH  058%=      5-min Rain = 0
KHA1 180540Z 17006KT 04/M04 A3003 RMK A01 T00371040  RH  058%=      5-min Rain = 0
KHA1 180545Z 17005KT 04/M04 A3003 RMK A01 T00361040  RH  058%=      5-min Rain = 0
KHA1 180550Z 17005KT 03/M04 A3002 RMK A01 T00331040  RH  059%=      5-min Rain = 0
KHA1 180555Z 18005KT 03/M04 A3002 RMK A01 T00331040  RH  059%=      5-min Rain = 0

Page generated in 0.0137 seconds.